메인 페이지
METAR-TAF:

METAR-TAF

공항 :

첸나이 국제공항

첸나이, 인도

위도: 13-00N, 경도: 080-11E, 고도: 10m

현재 날씨관측

예보는 25분 전, 19:00시(UTC)에 발표되었습니다.
여러 방향의 바람 2kt
온도 25°C
습도 94%
기압 1014 hPa
시정: 5000m
고도 2000ft 상공 구름 보통
고도 10000ft 상공 구름 많음
박무

METAR: VOMM 301900Z VRB02KT 5000 BR SCT020 BKN100 25/24 Q1014 NOSIG

시각: 00:55 (19:25 UTC)

예보

예보는 2 시간 25분 전, 17:00시(UTC)에 발표되었습니다.
예보 대상 시간: 30일 18시부터 01일 24시까지 (UTC)
북북동10kt
시정: 4000m
고도 1800ft 상공 구름 보통
고도 10000ft 상공 구름 많음
박무
전환 중
30일 21시부터 30일 22시까지 (UTC)
시정: 3000m
박무
일시적
01일 00시부터 01일 03시까지 (UTC)
시정: 2000m
박무
전환 중
01일 03시부터 01일 04시까지 (UTC)
시정: 5000m
박무
전환 중
01일 06시부터 01일 07시까지 (UTC)
시정: 6000m
일시적
01일 09시부터 01일 15시까지 (UTC)
고도 1800ft 상공 구름 보통
고도 8000ft 상공 구름 많음
전환 중
01일 15시부터 01일 16시까지 (UTC)
시정: 4000m
박무

TAF: VOMM 301700Z 3018/0124 02010KT 4000 BR SCT018 BKN100 BECMG 3021/3022 3000 BR TEMPO 0100/0103 2000 BR BECMG 0103/0104 5000 BR BECMG 0106/0107 6000 TEMPO 0109/0115 SCT018 FEW025TCU/CB BKN080 BECMG 0115/0116 4000 BR

4,000개 이상의 공항 관측 자료 및 예보 (METAR 및 TAF 보고).

지도상에서 검색 가능한 기상관측소가 노란 점과 빨간 점으로 표시되어 있습니다.

기상관측소 명을 보려면 표시 위로 마우스를 이동하세요.

날씨 관측과 예보를 보려면 클릭하세요.

지도 변경 : 확대하려면 엑스 표시가 있는 녹색 버튼, 축소하려면 빼기 표시가 있는 녹색 버튼, 다음 페이지의 지도를 보려면 녹색 화살표를 클릭하세요.


METAR-TAF: